Rechercher aéroport 
image banner adimage banner ad
image banner ad

SVJE - Hacienda El Caimito

Situé à Zulia, Venezuela

ICAO - , IATA -

Données fournies par Airmate  

Information générale

Coordonnées: N10°9'0" W72°11'0"
Élévation : feet MSL.
 
Voir autres Aéroports à Zulia

Données opérationnelles

Accessible au public
Heure actuelle UTC:
Heure actuelle locale:
Météo à : SVMC - Maracaibo / La Chinita Intl ( 67 km )
METAR: SVMC 282302Z AUTO 04007KT NCD 31/22 Q1006
TAF: TAF SVMC 281600Z 2818/2918 08006KT 9999 SCT013 TX35/2818Z TN25/2907Z TEMPO 2818/2822 09007KT 9000 DZ BKN013 FM282300 09003KT 9999 SCT013 SCT070
Voir NOTAMs / SUP AIP / TFR affectant cet aéroport [VIEW]
Fréquences de communication: [VIEW]

Pistes:

Identifiant RWYQFULongueur (ft)Largeur (ft)SurfaceLDA (ft)
1800
3600

Coordonnées de l'aéroport

Adresse: Zulia Venezuela

Vue satellite de SVJE